sensor_id;sensor_type;location;lat;lon;timestamp;P1;durP1;ratioP1;P2;durP2;ratioP2
24435;SDS011;12616;52.470;13.436;2023-08-12T02:14:38;14.17;;;7.93;;
24435;SDS011;12616;52.470;13.436;2023-08-12T06:58:28;7.60;;;5.93;;
24435;SDS011;12616;52.470;13.436;2023-08-12T07:45:27;6.97;;;5.40;;
24435;SDS011;12616;52.470;13.436;2023-08-12T07:47:54;5.47;;;4.97;;
24435;SDS011;12616;52.470;13.436;2023-08-12T07:53:21;5.30;;;4.90;;
24435;SDS011;12616;52.470;13.436;2023-08-12T07:55:48;5.63;;;5.13;;
24435;SDS011;12616;52.470;13.436;2023-08-12T07:58:16;5.77;;;5.20;;
24435;SDS011;12616;52.470;13.436;2023-08-12T08:00:46;5.70;;;5.30;;
24435;SDS011;12616;52.470;13.436;2023-08-12T08:03:13;7.20;;;5.57;;
24435;SDS011;12616;52.470;13.436;2023-08-12T08:05:40;5.93;;;5.33;;
24435;SDS011;12616;52.470;13.436;2023-08-12T08:08:07;6.13;;;5.63;;
24435;SDS011;12616;52.470;13.436;2023-08-12T08:10:34;5.90;;;5.23;;
24435;SDS011;12616;52.470;13.436;2023-08-12T08:13:02;5.93;;;5.40;;
24435;SDS011;12616;52.470;13.436;2023-08-12T08:15:29;6.30;;;5.80;;
24435;SDS011;12616;52.470;13.436;2023-08-12T08:18:01;6.40;;;5.80;;
24435;SDS011;12616;52.470;13.436;2023-08-12T08:20:29;6.90;;;6.20;;
24435;SDS011;12616;52.470;13.436;2023-08-12T08:22:56;6.07;;;5.67;;
24435;SDS011;12616;52.470;13.436;2023-08-12T08:25:23;6.30;;;5.70;;
24435;SDS011;12616;52.470;13.436;2023-08-12T08:27:50;6.10;;;5.57;;
24435;SDS011;12616;52.470;13.436;2023-08-12T08:30:17;6.13;;;5.63;;
24435;SDS011;12616;52.470;13.436;2023-08-12T08:32:44;6.67;;;6.07;;
24435;SDS011;12616;52.470;13.436;2023-08-12T08:35:14;11.03;;;6.07;;
24435;SDS011;12616;52.470;13.436;2023-08-12T08:37:49;6.73;;;6.13;;
24435;SDS011;12616;52.470;13.436;2023-08-12T08:40:27;5.47;;;5.17;;
24435;SDS011;12616;52.470;13.436;2023-08-12T08:42:58;6.17;;;5.67;;
24435;SDS011;12616;52.470;13.436;2023-08-12T08:45:29;5.73;;;5.13;;
24435;SDS011;12616;52.470;13.436;2023-08-12T08:47:59;6.97;;;6.47;;
24435;SDS011;12616;52.470;13.436;2023-08-12T08:50:29;7.50;;;6.20;;
24435;SDS011;12616;52.470;13.436;2023-08-12T08:52:57;6.43;;;5.83;;
24435;SDS011;12616;52.470;13.436;2023-08-12T08:55:25;7.57;;;6.27;;
24435;SDS011;12616;52.470;13.436;2023-08-12T08:57:52;5.83;;;5.43;;
24435;SDS011;12616;52.470;13.436;2023-08-12T09:00:24;6.67;;;5.97;;
24435;SDS011;12616;52.470;13.436;2023-08-12T09:03:00;6.90;;;6.23;;
24435;SDS011;12616;52.470;13.436;2023-08-12T12:13:55;7.87;;;7.17;;
24435;SDS011;12616;52.470;13.436;2023-08-12T12:16:21;8.43;;;7.27;;
24435;SDS011;12616;52.470;13.436;2023-08-12T12:18:49;7.33;;;6.73;;
24435;SDS011;12616;52.470;13.436;2023-08-12T12:21:23;8.87;;;7.50;;
24435;SDS011;12616;52.470;13.436;2023-08-12T12:23:50;8.17;;;7.03;;
24435;SDS011;12616;52.470;13.436;2023-08-12T12:26:19;8.27;;;7.43;;
24435;SDS011;12616;52.470;13.436;2023-08-12T12:28:45;9.67;;;8.77;;
24435;SDS011;12616;52.470;13.436;2023-08-12T12:31:14;8.73;;;7.17;;
24435;SDS011;12616;52.470;13.436;2023-08-12T12:33:41;7.10;;;6.40;;
24435;SDS011;12616;52.470;13.436;2023-08-12T12:36:08;7.50;;;6.90;;
24435;SDS011;12616;52.470;13.436;2023-08-12T12:38:34;7.27;;;6.53;;
24435;SDS011;12616;52.470;13.436;2023-08-12T12:41:01;8.03;;;7.10;;
24435;SDS011;12616;52.470;13.436;2023-08-12T12:43:28;7.40;;;6.80;;
24435;SDS011;12616;52.470;13.436;2023-08-12T12:45:55;12.87;;;7.17;;
24435;SDS011;12616;52.470;13.436;2023-08-12T12:48:23;7.27;;;6.60;;
24435;SDS011;12616;52.470;13.436;2023-08-12T12:50:58;7.90;;;7.30;;
24435;SDS011;12616;52.470;13.436;2023-08-12T12:53:40;7.20;;;6.60;;
24435;SDS011;12616;52.470;13.436;2023-08-12T12:56:08;6.97;;;6.37;;
24435;SDS011;12616;52.470;13.436;2023-08-12T12:58:35;6.27;;;5.67;;
24435;SDS011;12616;52.470;13.436;2023-08-12T13:01:05;6.90;;;6.40;;
24435;SDS011;12616;52.470;13.436;2023-08-12T13:03:35;10.67;;;6.57;;
24435;SDS011;12616;52.470;13.436;2023-08-12T13:06:05;6.70;;;6.20;;
24435;SDS011;12616;52.470;13.436;2023-08-12T13:08:34;17.90;;;15.50;;
24435;SDS011;12616;52.470;13.436;2023-08-12T13:11:01;12.50;;;11.47;;
24435;SDS011;12616;52.470;13.436;2023-08-12T13:13:28;12.90;;;11.90;;
24435;SDS011;12616;52.470;13.436;2023-08-12T13:15:55;9.93;;;8.97;;
24435;SDS011;12616;52.470;13.436;2023-08-12T13:18:22;7.23;;;6.53;;
24435;SDS011;12616;52.470;13.436;2023-08-12T13:20:50;8.33;;;7.47;;
24435;SDS011;12616;52.470;13.436;2023-08-12T13:23:17;7.53;;;6.93;;
24435;SDS011;12616;52.470;13.436;2023-08-12T13:25:44;13.50;;;11.03;;
24435;SDS011;12616;52.470;13.436;2023-08-12T13:28:11;17.63;;;13.03;;
24435;SDS011;12616;52.470;13.436;2023-08-12T13:30:38;16.57;;;11.00;;
24435;SDS011;12616;52.470;13.436;2023-08-12T13:33:05;10.73;;;9.10;;
24435;SDS011;12616;52.470;13.436;2023-08-12T13:35:32;8.87;;;7.97;;
24435;SDS011;12616;52.470;13.436;2023-08-12T13:38:00;10.90;;;7.20;;
24435;SDS011;12616;52.470;13.436;2023-08-12T13:40:33;8.00;;;7.23;;
24435;SDS011;12616;52.470;13.436;2023-08-12T22:11:39;9.33;;;8.40;;
24435;SDS011;12616;52.470;13.436;2023-08-12T22:24:12;10.17;;;9.13;;
24435;SDS011;12616;52.470;13.436;2023-08-12T22:51:59;5.17;;;4.77;;
24435;SDS011;12616;52.470;13.436;2023-08-12T22:54:30;5.63;;;5.17;;
24435;SDS011;12616;52.470;13.436;2023-08-12T22:57:14;5.97;;;5.40;;
24435;SDS011;12616;52.470;13.436;2023-08-12T23:00:03;5.40;;;5.00;;
24435;SDS011;12616;52.470;13.436;2023-08-12T23:16:03;5.57;;;4.77;;
24435;SDS011;12616;52.470;13.436;2023-08-12T23:18:52;4.23;;;3.93;;
